Impacts METAR Board INFO
IDs:

KBOS - Boston/Logan Intl, MA, US

Updated at: 1439 UTC 22 Feb 2018
Potential Impact None Slight Moderate High
Time22/02Z 22/03Z 22/04Z 22/05Z 22/06Z 22/07Z 22/08Z 22/09Z 22/10Z 22/11Z 22/12Z 22/13Z 22/14Z
VIS 10 10 10 10 10 10 10 10 10 10 10
CIG 60 60 60 65 70 70 70 75 80 85 85
CoverOVCOVCOVCOVCOVCOVCOVCOVCOVCOVCOVC
FltCatVFRVFRVFRVFRVFRVFRVFRVFRVFRVFRVFR
WX----------------------
WDir35034033033033035034034035036060
WSpd 12 13 15 13 13 14 10 8 8 6 10
WGst -- -- 22 -- -- -- -- -- -- -- --
Raw hourly METARs


KBOS 220354Z 35012KT 10SM OVC060 14/07 A3036 RMK AO2 SLP279 T01390072
KBOS 220454Z 34013KT 10SM OVC060 13/02 A3039 RMK AO2 SLP290 T01280017 402220050
KBOS 220554Z 33015G22KT 10SM OVC060 11/M02 A3044 RMK AO2 SLP307 T01111022 10200 20111 53039
KBOS 220654Z 33013KT 10SM OVC065 11/M07 A3048 RMK AO2 SLP319 T01061067
KBOS 220754Z 33013KT 10SM OVC070 09/M04 A3050 RMK AO2 SLP329 T00941044
KBOS 220854Z 35014KT 10SM OVC070 07/M04 A3053 RMK AO2 RAB45E54 SLP337 P0000 60000 T00721039 51030
KBOS 220954Z 34010KT 10SM OVC070 07/M04 A3056 RMK AO2 RAB36E46 SLP346 P0000 T00671044
KBOS 221054Z 34008KT 10SM OVC075 06/M05 A3059 RMK AO2 SLP357 T00611050
KBOS 221154Z 35008KT 10SM OVC080 06/M06 A3062 RMK AO2 SLP366 60000 T00561056 10117 20056 52029
KBOS 221254Z 36006KT 10SM OVC085 06/M05 A3063 RMK AO2 SLP373 T00561050
KBOS 221354Z 06010KT 10SM FEW060 OVC085 05/M01 A3064 RMK AO2 SLP375 T00501011